createdAt,value
2022-12-14T00:05:40.773Z,9.88
2022-12-14T00:15:42.274Z,10.18
2022-12-14T00:25:43.687Z,10.25
2022-12-14T00:35:50.341Z,9.93
2022-12-14T00:45:51.624Z,10.30
2022-12-14T00:55:52.901Z,9.98
2022-12-14T01:05:54.189Z,10.68
2022-12-14T01:15:55.534Z,10.45
2022-12-14T01:25:57.171Z,9.85
2022-12-14T01:36:01.496Z,9.52
2022-12-14T01:46:02.785Z,10.40
2022-12-14T01:56:04.049Z,10.10
2022-12-14T02:06:05.336Z,10.45
2022-12-14T02:16:06.683Z,11.52
2022-12-14T02:26:07.990Z,10.77
2022-12-14T02:36:09.302Z,10.70
2022-12-14T02:46:10.920Z,10.93
2022-12-14T02:56:12.248Z,11.45
2022-12-14T03:06:16.260Z,12.35
2022-12-14T03:26:18.913Z,12.02
2022-12-14T03:36:20.248Z,11.02
2022-12-14T03:46:21.529Z,11.85
2022-12-14T03:56:22.826Z,10.38
2022-12-14T04:06:24.053Z,10.60
2022-12-14T04:16:44.033Z,10.70
2022-12-14T04:26:45.342Z,9.65
2022-12-14T04:36:46.613Z,10.15
2022-12-14T04:46:47.918Z,11.10
2022-12-14T04:56:49.220Z,11.20
2022-12-14T05:06:50.471Z,11.55
2022-12-14T05:16:51.813Z,9.70
2022-12-14T05:26:54.815Z,10.73
2022-12-14T05:36:56.061Z,12.18
2022-12-14T05:46:57.376Z,12.85
2022-12-14T05:56:58.648Z,14.73
2022-12-14T06:06:59.956Z,13.77
2022-12-14T06:17:01.325Z,16.05
2022-12-14T06:27:02.574Z,14.23
2022-12-14T06:37:03.869Z,15.50
2022-12-14T06:47:05.241Z,15.98
2022-12-14T06:57:06.494Z,15.40
2022-12-14T07:07:07.784Z,14.05
2022-12-14T07:17:09.068Z,14.30
2022-12-14T07:27:10.318Z,16.08
2022-12-14T07:37:11.549Z,17.77
2022-12-14T07:47:16.584Z,19.25
2022-12-14T07:57:18.140Z,16.90
2022-12-14T08:07:19.481Z,18.08
2022-12-14T08:17:20.751Z,19.02
2022-12-14T08:27:21.992Z,19.90
2022-12-14T08:37:23.222Z,23.75
2022-12-14T08:47:24.482Z,23.67
2022-12-14T08:57:25.745Z,24.80
2022-12-14T09:07:27.067Z,24.13
2022-12-14T09:17:28.408Z,26.52
2022-12-14T09:27:29.682Z,27.63
2022-12-14T09:37:31.065Z,29.42
2022-12-14T09:47:32.447Z,27.83
2022-12-14T09:57:33.726Z,28.27
2022-12-14T10:07:35.023Z,27.27
2022-12-14T10:17:36.291Z,28.60
2022-12-14T10:28:01.124Z,27.55
2022-12-14T10:37:59.048Z,28.63
2022-12-14T10:48:12.198Z,28.25
2022-12-14T10:58:13.450Z,27.88
2022-12-14T11:08:15.745Z,29.52
2022-12-14T11:18:17.224Z,29.60
2022-12-14T11:28:18.670Z,26.85
2022-12-14T11:38:21.047Z,26.27
2022-12-14T11:48:22.342Z,28.85
2022-12-14T11:58:23.622Z,27.73
2022-12-14T12:08:25.007Z,27.10
2022-12-14T12:18:26.784Z,25.00
2022-12-14T12:28:28.732Z,27.55
2022-12-14T12:38:30.722Z,27.35
2022-12-14T12:48:32.748Z,29.75
2022-12-14T12:58:34.880Z,27.88
2022-12-14T13:08:36.194Z,27.25
2022-12-14T13:28:58.728Z,29.00
2022-12-14T13:38:59.960Z,26.20
2022-12-14T13:49:01.263Z,27.95
2022-12-14T13:59:02.777Z,27.45
2022-12-14T14:09:04.102Z,25.58
2022-12-14T14:19:05.662Z,27.73
2022-12-14T14:29:07.262Z,28.45
2022-12-14T14:39:31.419Z,31.50
2022-12-14T14:49:30.462Z,28.55
2022-12-14T14:59:31.968Z,29.08
2022-12-14T15:09:33.716Z,29.13
2022-12-14T15:19:36.721Z,29.90
2022-12-14T15:29:37.948Z,28.52
2022-12-14T15:39:40.601Z,29.73
2022-12-14T15:49:41.852Z,26.67
2022-12-14T15:59:43.287Z,27.17
2022-12-14T16:09:44.561Z,27.63
2022-12-14T16:19:59.569Z,31.55
2022-12-14T16:30:01.399Z,29.85
2022-12-14T16:40:02.733Z,27.42
2022-12-14T16:50:04.126Z,27.15
2022-12-14T17:00:05.690Z,30.92
2022-12-14T17:10:06.952Z,37.40
2022-12-14T17:20:13.616Z,29.75
2022-12-14T17:30:15.753Z,27.92
2022-12-14T17:40:17.005Z,28.52
2022-12-14T17:50:18.259Z,27.48
2022-12-14T18:00:38.149Z,31.02
2022-12-14T18:10:39.481Z,24.13
2022-12-14T18:20:40.715Z,25.10
2022-12-14T18:30:47.688Z,26.13
2022-12-14T18:40:50.826Z,25.33
2022-12-14T18:50:52.112Z,23.80
2022-12-14T19:00:53.472Z,27.48
2022-12-14T19:10:54.791Z,24.15
2022-12-14T19:20:56.164Z,24.85
2022-12-14T19:30:57.467Z,25.65
2022-12-14T19:40:58.729Z,26.20
2022-12-14T19:50:59.972Z,25.23
2022-12-14T20:01:01.231Z,28.83
2022-12-14T20:11:02.754Z,22.55
2022-12-14T20:21:03.973Z,22.52
2022-12-14T20:31:05.241Z,21.70
2022-12-14T20:41:06.548Z,20.92
2022-12-14T20:51:07.779Z,23.13
2022-12-14T21:01:09.090Z,26.48
2022-12-14T21:11:29.023Z,23.60
2022-12-14T21:21:30.264Z,21.88
2022-12-14T21:31:31.593Z,22.10
2022-12-14T21:41:51.449Z,20.92
2022-12-14T21:51:52.683Z,22.00
2022-12-14T22:01:54.384Z,21.95
2022-12-14T22:11:55.726Z,21.92
2022-12-14T22:21:57.158Z,25.65
2022-12-14T22:31:58.585Z,22.60
2022-12-14T22:41:59.853Z,21.75
2022-12-14T22:52:01.155Z,22.48
2022-12-14T23:02:02.695Z,21.73
2022-12-14T23:12:22.548Z,21.65
2022-12-14T23:22:42.223Z,21.90
2022-12-14T23:33:02.194Z,21.77
2022-12-14T23:43:21.927Z,22.10
2022-12-14T23:53:41.715Z,22.27
